Weather observations for the past three days for
Plainview, Hale County Airport
Metric (Imperial)
Date Time (cdt) Wind (kph) Vis. (km) Weather Sky Cond. Temperature (ºC) Relative Humidity Wind Chill (°C) Heat Index (°C) Pressure Precipitation (cm)
Air Dwpt 6 hour altimeter (cm) sea level (mb) 1 hr 3 hr 6 hr
Max. Min.
08 06:50 SW 11 16.09 Fair CLR 8.8 5.6 14 7.6 81% 7 76.05 0.0
08 06:30 SW 7 16.09 Fair CLR 8.8 5.3 79% 8 76.07 0.0
08 06:10 SW 9 16.09 Fair CLR 9 5.1 77% 8 76.07 0.0
08 05:50 SW 9 16.09 Fair CLR 7.8 3.6 75% 6 76.07 0.0
08 05:30 SW 9 16.09 Fair CLR 8.8 4.2 73% 8 76.05 0.0
08 05:10 SW 7 16.09 Fair CLR 9 4 71% 8 76.05 0.0
08 04:50 SW 7 16.09 Fair CLR 9.5 4.4 71% 9 76.05 0.0
08 04:30 SW 7 16.09 Fair CLR 9.5 4.2 70% 9 76.05 0.0
08 04:10 SW 9 16.09 Fair CLR 10 4.3 68% 9 76.05 0.0
08 03:50 SW 9 16.09 Fair CLR 11 4.6 65% 76.07 0.0
08 03:30 SW 13 16.09 Fair CLR 11.3 4.7 64% 76.07 0.0
08 02:50 SW 17 16.09 Fair CLR 12.3 4.8 60% 76.07 0.0
08 02:30 SW 17 16.09 Fair CLR 12.7 5 60% 76.07 0.0
08 02:10 S 15 16.09 Fair CLR 12.8 5 59% 76.1 0.0
08 01:50 SW 15 16.09 Fair CLR 13.2 5 58% 76.1 0.0
08 01:30 S 13 16.09 Fair CLR 13.2 4.7 57% 76.12 0.0
08 01:10 S 13 16.09 Fair CLR 13.5 4.5 55% 76.1 0.0
08 00:50 S 15 16.09 Fair CLR 14.1 4.1 23.6 14.1 51% 76.12 0.0
08 00:30 S 17 16.09 Fair CLR 15 4.1 48% 76.12 0.0
08 00:10 S 19 16.09 Fair CLR 16.1 4.2 45% 76.12 0.0
07 23:50 S 20 16.09 Fair CLR 15.5 3.1 44% 76.12 0.0
07 23:30 S 9 16.09 Fair CLR 15 2.7 44% 76.12 0.0
07 23:10 S 13 16.09 Fair CLR 15.3 2.6 43% 76.15 0.0
07 22:50 S 13 16.09 Fair CLR 15.8 2.7 42% 76.15 0.0
07 22:30 S 13 16.09 Fair CLR 16.2 2.5 40% 76.15 0.0
07 22:10 S 15 16.09 Fair CLR 16.6 2.1 38% 76.15 0.0
07 21:50 S 13 16.09 Fair CLR 16.7 1.8 37% 76.12 0.0
07 21:30 S 11 16.09 Fair CLR 17.3 2 36% 76.1 0.0
07 21:10 S 13 16.09 Fair CLR 18.6 2.1 33% 76.07 0.0
07 20:50 S 13 16.09 Fair CLR 19.5 1.7 31% 76.07 0.0
07 20:30 S 13 16.09 Fair CLR 20.2 1.6 29% 76.07 0.0
07 20:10 S 13 16.09 Fair CLR 21.9 1.6 26% 76.07 0.0
07 19:50 S 15 G 26 16.09 Fair CLR 22.7 1.3 24% 76.07 0.0
07 19:30 SW 19 16.09 Fair CLR 23 1.1 24% 76.07 0.0
07 19:10 S 19 16.09 Fair CLR 23.3 1.1 23% 76.07 0.0
07 18:50 S 19 16.09 Fair CLR 23.6 0.9 24.5 17.5 22% 76.07 0.0
07 18:30 S 13 G 26 16.09 Fair CLR 23.8 0.8 22% 76.07 0.0
07 18:10 S 26 G 33 16.09 Fair CLR 24 0.7 22% 25 76.07 0.0
07 17:50 SW 9 G 28 16.09 Fair CLR 23.7 1 22% 76.07 0.0
07 17:10 S 11 16.09 Fair CLR 23.3 1.5 24% 76.1 0.0
07 16:50 S 13 16.09 Fair CLR 23.2 1.9 25% 76.12 0.0
07 16:30 Calm 16.09 Fair CLR 22.9 2.3 26% 76.15 0.0
07 15:50 SW 13 16.09 Fair CLR 21.9 2.6 28% 76.2 0.0
07 15:30 SW 17 G 41 16.09 Fair CLR 21.6 2.2 28% 76.25 0.0
07 15:10 W 13 16.09 Fair CLR 20.8 2.6 30% 76.28 0.0
07 14:50 SW 6 16.09 Fair CLR 20.4 3.3 32% 76.3 0.0
07 14:30 SW 9 16.09 Fair CLR 20.6 2.9 31% 76.33 0.0
07 14:10 SW 9 16.09 Fair CLR 19.7 3.4 34% 76.35 0.0
07 13:50 W 11 16.09 Fair CLR 19.5 3.5 35% 76.38 0.0
07 13:10 S 13 16.09 Fair CLR 18.5 3.8 38% 76.43 0.0
07 12:50 W 11 16.09 Fair CLR 17.3 3.7 17.3 4 41% 76.45 0.0
07 12:30 SW 7 16.09 Fair CLR 17 3.6 41% 76.48 0.0
07 12:10 W 15 16.09 Fair CLR 16.1 3.5 43% 76.5 0.0
07 11:50 W 11 16.09 Fair CLR 15.5 3.3 44% 76.53 0.0
07 11:30 W 7 16.09 Fair CLR 14.5 2.9 46% 76.56 0.0
07 11:10 Calm 16.09 Fair CLR 14.1 2.6 46% 76.58 0.0
07 10:50 S 9 16.09 Fair CLR 13.3 2.5 48% 76.61 0.0
07 10:30 S 7 16.09 Fair CLR 12.4 2.2 50% 76.61 0.0
07 10:10 S 7 16.09 Fair CLR 11.8 2 51% 76.63 0.0
07 09:50 S 9 16.09 Fair CLR 11.4 2.1 53% 76.63 0.0
07 09:30 Calm 16.09 Fair CLR 10.5 1.3 53% 76.63 0.0
07 09:10 Calm 16.09 Fair CLR 9.9 1 54% 76.66 0.0
07 08:50 SE 6 16.09 Fair CLR 9.7 0.7 54% 76.66 0.0
07 08:30 Calm 16.09 Fair CLR 8.9 0.3 55% 76.66 0.0
07 08:10 Calm 16.09 Fair CLR 7.9 0.1 58% 76.63 0.0
07 07:30 Calm 16.09 Fair CLR 5.5 0 68% 76.63 0.0
07 07:10 N 6 16.09 Fair CLR 4 -0.6 72% 76.61 0.0
07 06:50 Calm 16.09 Fair CLR 4.7 -1 10 4.3 67% 76.61 0.0
07 06:30 Calm 16.09 Fair CLR 4.5 -0.8 69% 76.61 0.0
07 06:10 Calm 16.09 Fair CLR 4.4 -1 68% 76.61 0.0
07 05:50 NE 6 16.09 Fair CLR 5.6 -0.6 65% 76.61 0.0
07 05:30 Calm 16.09 Fair CLR 5.6 -0.3 66% 76.61 0.0
07 05:10 Calm 16.09 Fair CLR 4.8 -0.6 68% 76.58 0.0
07 04:50 Calm 16.09 Fair CLR 5.3 -0.5 67% 76.58 0.0
07 04:30 E 7 16.09 Fair CLR 6.6 -0.1 63% 5 76.58 0.0
07 04:10 E 9 16.09 Fair CLR 6 -0.2 65% 4 76.58 0.0
07 03:50 E 11 16.09 Partly Cloudy SCT045 6.7 -0.1 62% 5 76.61 0.0
07 03:30 NE 13 16.09 Mostly Cloudy BKN047 7.8 0 58% 6 76.61 0.0
07 03:10 NE 11 16.09 Overcast OVC047 8.3 0 56% 7 76.63 0.0
07 02:50 NE 17 16.09 Overcast OVC047 8.5 0.1 56% 6 76.66 0.0
07 02:30 NE 17 16.09 Overcast OVC047 8.6 0.5 57% 6 76.66 0.0
07 02:10 NE 13 16.09 Mostly Cloudy BKN049 9 0.2 54% 7 76.66 0.0
07 01:50 NE 20 16.09 Partly Cloudy SCT049 8.9 0.5 56% 6 76.63 0.0
07 01:30 NE 20 16.09 Partly Cloudy SCT049 9.1 1 57% 6 76.63 0.0
07 01:10 NE 20 16.09 Fair CLR 9.5 1 56% 7 76.61 0.0
07 00:50 NE 20 16.09 Fair CLR 10.2 1.1 18.6 10.2 54% 76.58 0.0
07 00:30 NE 19 16.09 Fair CLR 10.4 1.3 54% 76.53 0.0
07 00:10 NE 24 16.09 Partly Cloudy SCT050 10.7 1.5 53% 76.5 0.0
06 23:50 NE 20 G 30 16.09 Fair CLR 11 1.4 52% 76.48 0.0
06 23:30 NE 24 16.09 Fair CLR 11.5 1.5 51% 76.5 0.0
06 23:10 NE 22 16.09 Fair CLR 11.6 1.5 50% 76.48 0.0
06 22:50 NE 20 16.09 Fair CLR 12 1.7 50% 76.48 0.0
06 22:30 NE 22 16.09 Fair CLR 12.2 2 50% 76.43 0.0
06 22:10 E 22 16.09 Fair CLR 12.6 2 49% 76.35 0.0
06 21:50 E 20 16.09 Fair CLR 13 2.1 48% 76.3 0.0
06 21:30 E 17 16.09 Fair CLR 13 2.1 48% 76.28 0.0
06 21:10 E 20 16.09 Fair CLR 13.5 2.1 46% 76.25 0.0
06 20:50 E 22 G 31 16.09 Fair CLR 14 2.1 45% 76.23 0.0
06 20:30 E 22 16.09 Fair CLR 14.4 2.3 44% 76.17 0.0
06 20:10 E 28 G 35 16.09 Fair CLR 15.2 2.3 42% 76.15 0.0
06 19:50 E 30 G 41 16.09 Fair CLR 16.1 2.2 39% 76.12 0.0
06 19:30 E 31 G 41 16.09 Fair CLR 17.2 2.2 37% 76.1 0.0
06 19:10 E 30 16.09 Fair CLR 18.3 2.3 35% 76.07 0.0
06 18:50 E 33 G 43 16.09 Fair and Breezy CLR 19 2.2 20.3 14.4 33% 76.07 0.0
06 18:30 E 22 G 30 16.09 Fair CLR 19.6 2.2 32% 76.05 0.0
06 18:10 E 19 G 31 16.09 Fair CLR 19.7 1.9 31% 76.05 0.0
06 17:50 E 20 G 30 16.09 Fair CLR 19.8 2 31% 76.05 0.0
06 17:30 E 11 G 28 16.09 Fair CLR 19.5 1.9 31% 76.05 0.0
06 17:10 E 13 16.09 Partly Cloudy SCT070 19.5 1.8 31% 76.05 0.0
06 16:50 SE 20 16.09 Fair CLR 19.6 2 31% 76.07 0.0
06 16:10 SE 11 16.09 Partly Cloudy SCT075 18.8 1.8 32% 76.1 0.0
06 15:50 Calm 16.09 Partly Cloudy SCT075 18.8 2.2 33% 76.12 0.0
06 15:30 NE 6 16.09 Fair CLR 18 2.1 35% 76.12 0.0
06 15:10 E 13 16.09 Fair CLR 18 2.3 35% 76.15 0.0
06 14:50 E 15 16.09 Fair CLR 17.6 2.1 36% 76.17 0.0
06 14:30 S 15 G 28 16.09 Fair CLR 17 2.7 39% 76.17 0.0
06 14:10 SE 11 16.09 Fair CLR 16.5 2.7 40% 76.17 0.0
06 13:50 SE 7 16.09 Fair CLR 16.1 2.6 41% 76.17 0.0
06 13:30 E 9 16.09 Fair CLR 15.3 2.7 43% 76.2 0.0
06 13:10 E 17 16.09 Fair CLR 14.6 2.7 45% 76.23 0.0
06 12:50 E 11 16.09 Fair CLR 14.6 2.8 14.9 5.5 45% 76.25 0.0
06 12:30 E 19 16.09 Fair CLR 13.6 2.7 48% 76.25 0.0
06 12:10 E 20 G 26 16.09 Fair CLR 13.3 2.6 49% 76.25 0.0
06 11:50 E 15 16.09 Fair CLR 13.3 2.4 48% 76.25 0.0
06 11:10 E 17 16.09 Fair CLR 11.4 2.1 53% 76.25 0.0
06 10:50 E 19 16.09 Fair CLR 11 2.2 55% 76.23 0.0
06 10:30 E 22 G 30 16.09 Fair CLR 10.6 2 56% 76.23 0.0
06 10:10 E 19 16.09 Fair CLR 9.7 1.3 56% 7 76.23 0.0
06 09:50 E 20 G 26 16.09 Fair CLR 9.2 0.9 56% 7 76.23 0.0
06 09:30 E 20 G 30 16.09 Fair CLR 8.4 0.7 59% 6 76.23 0.0
06 09:10 E 17 G 28 16.09 Partly Cloudy SCT022 8.3 0.8 60% 6 76.25 0.0
06 08:50 E 20 16.09 Fair CLR 7.3 0.6 63% 4 76.23 0.0
06 08:30 E 15 16.09 Partly Cloudy SCT016 6.8 0.8 66% 4 76.2 0.0
06 07:50 NE 19 16.09 Overcast OVC014 5.8 2 77% 3 76.2 0.0
06 07:30 E 19 16.09 Overcast OVC012 5.7 2.2 78% 2 76.2 0.0
06 07:10 E 20 16.09 Overcast OVC010 5.5 2.6 82% 2 76.2 0.0
06 06:50 E 20 16.09 Overcast OVC010 5.8 3.1 8.3 5.5 83% 2 76.2 0.0
06 06:30 E 20 16.09 Overcast OVC012 6.2 3.2 81% 3 76.17 0.0
06 06:10 NE 17 G 31 16.09 Overcast OVC012 6.5 3.1 79% 4 76.17 0.0
06 05:50 NE 24 16.09 Overcast OVC012 6.5 3.1 79% 3 76.12 0.0
06 05:30 E 26 16.09 Overcast OVC012 6.5 3 79% 3 76.1 0.0
06 05:10 E 20 16.09 Overcast OVC012 6.3 3 80% 3 76.1 0.0
06 04:30 E 19 G 28 16.09 Mostly Cloudy BKN014 5.7 2.6 81% 2 76.05 0.0
06 04:10 E 20 16.09 Partly Cloudy SCT014 5.5 2.5 81% 2 76 0.0
06 03:50 E 17 16.09 Mostly Cloudy BKN014 5.7 2.5 80% 3 76 0.0
06 03:30 E 20 16.09 Fair CLR 5.6 2.3 80% 2 76 0.0
06 03:10 NE 20 G 28 16.09 Fair CLR 6 2.2 77% 3 76 0.0
06 02:50 E 24 16.09 Fair CLR 6.4 2.3 75% 3 76 0.0
06 02:30 E 20 16.09 Fair CLR 6.7 2.7 76% 3 75.97 0.0
06 02:10 E 24 16.09 Fair CLR 7.2 2.9 74% 4 76 0.0
06 01:50 E 26 16.09 Fair CLR 7.6 3 73% 4 75.97 0.0
06 01:30 E 17 16.09 Fair CLR 7.8 3 72% 5 75.95 0.0
06 01:10 E 22 16.09 Fair CLR 8 3 71% 5 75.9 0.0
06 00:50 E 22 16.09 Fair CLR 8.4 3.1 21 8.4 70% 5 75.87 0.0
06 00:30 E 20 16.09 Fair CLR 8.8 3.2 68% 6 75.84 0.0
06 00:10 E 26 16.09 Fair CLR 9.2 3.3 67% 6 75.9 0.0
05 23:50 E 26 16.09 Fair CLR 9.6 3.4 66% 7 75.87 0.0
05 23:30 E 28 16.09 Fair CLR 10.2 3.7 64% 75.84 0.0
05 23:10 E 30 G 37 16.09 Fair CLR 10.8 4.1 64% 75.87 0.0
05 22:50 E 26 16.09 Fair CLR 11.5 4.3 62% 75.9 0.0
05 22:30 NE 26 16.09 Fair CLR 12.1 4.5 60% 75.9 0.0
05 22:10 E 30 G 35 16.09 Fair CLR 12.9 4.5 57% 75.87 0.0
05 21:50 E 22 16.09 Fair CLR 13.7 4.5 54% 75.84 0.0
05 21:30 E 24 G 37 16.09 Fair CLR 14.5 4.5 51% 75.79 0.0
05 20:50 E 24 G 33 16.09 Mostly Cloudy BKN100 15.8 4.5 47% 75.72 0.0
05 20:30 E 31 G 39 16.09 Mostly Cloudy BKN110 16.5 4.6 45% 75.67 0.0
05 20:10 E 31 16.09 Light Rain SCT110 17 5.1 46% 75.62 0.0
05 19:50 SE 24 G 31 16.09 Partly Cloudy SCT110 18.5 4.1 39% 75.62 0.0
05 19:30 E 28 G 33 16.09 Fair CLR 19.1 4 37% 75.59 0.0
05 19:10 E 24 16.09 Partly Cloudy SCT090 SCT110 20 3.5 34% 75.57 0.0
05 18:50 E 20 16.09 Overcast SCT075 OVC090 21.4 3.4 23.2 20 31% 75.62 0.0
05 18:30 E 20 16.09 Overcast SCT075 OVC090 20.9 3.4 32% 75.62 0.0
05 18:10 E 9 16.09 Mostly Cloudy BKN100 21.5 2.8 29% 75.64 0.0
05 17:50 E 13 16.09 Partly Cloudy SCT110 21.6 2.9 29% 75.62 0.0
05 17:30 E 6 G 26 16.09 Fair CLR 22.7 2.4 26% 75.59 0.0
05 17:10 E 19 16.09 Fair CLR 23 2.8 27% 75.62 0.0
05 16:50 E 17 G 28 16.09 Fair CLR 22.6 2.9 28% 75.64 0.0
05 16:30 N 11 16.09 Fair CLR 23 2.3 26% 75.67 0.0
05 16:10 NE 13 16.09 Fair CLR 22.1 2.3 27% 75.69 0.0
05 15:50 E 11 16.09 Fair CLR 22.1 2.1 27% 75.72 0.0
05 15:30 Calm 16.09 Fair CLR 21.5 2 28% 75.74 0.0
05 15:10 N 11 G 28 16.09 Fair CLR 22 2.2 27% 75.74 0.0
05 14:50 N 17 16.09 Fair CLR 21 1.9 28% 75.74 0.0
05 14:30 NE 9 16.09 Fair CLR 20.9 1.6 28% 75.77 0.0
05 14:10 N 15 G 26 16.09 Fair CLR 21.1 1.9 28% 75.77 0.0
05 13:50 N 17 G 28 16.09 Fair CLR 21.3 1.7 27% 75.74 0.0
05 13:30 N 9 16.09 Fair CLR 20.9 1.2 27% 75.77 0.0
05 13:10 N 20 G 30 16.09 Fair CLR 20.2 1.6 29% 75.77 0.0
05 12:50 N 17 G 37 16.09 Fair CLR 20.9 1.6 20.9 14.3 28% 75.77 0.0
05 12:30 N 20 G 31 16.09 Fair CLR 19.5 1.3 30% 75.79 0.0
05 12:10 N 24 G 31 16.09 Fair CLR 19.8 1.5 30% 75.74 0.0
05 11:50 N 20 G 31 16.09 Fair CLR 18.4 1.6 33% 75.77 0.0
05 11:30 N 24 G 35 16.09 Fair CLR 17.6 1.5 34% 75.77 0.0
05 11:10 N 24 16.09 Fair CLR 16.8 1.5 36% 75.79 0.0
05 10:50 N 28 16.09 Fair CLR 17.6 1.7 35% 75.79 0.0
05 10:30 N 24 G 31 16.09 Fair CLR 16.5 1.7 37% 75.77 0.0
05 10:10 N 19 G 30 16.09 Partly Cloudy SCT110 16.4 2.3 39% 75.79 0.0
05 09:50 N 24 G 30 16.09 Fair CLR 16 2.7 41% 75.72 0.0
05 09:30 N 28 16.09 Fair CLR 15.9 3 42% 75.69 0.0
05 09:10 N 28 16.09 Fair CLR 15.6 3.4 44% 75.69 0.0
05 08:50 N 24 16.09 Fair CLR 15.1 3.8 47% 75.67 0.0
05 08:30 N 20 G 30 16.09 Fair CLR 14.8 4 49% 75.67 0.0
05 08:10 N 24 G 30 16.09 Fair CLR 14.8 4.1 49% 75.64 0.0
05 07:50 N 30 G 37 16.09 Fair CLR 14.7 4 49% 75.64 0.0
Date Time (cdt) Wind (kph) Vis. (km) Weather Sky Cond. Air Dwpt Max. Min. Relative Humidity Wind Chill (°C) Heat Index (°C) altimeter (cm) sea level (mb) 1 hr 3 hr 6 hr
6 hour
Temperature (ºC) Pressure Precipitation (cm)